< Typhoon 201211 2012 Season Typhoon 201213 >
Typhoon 201212 (KIROGI)
General InformationTrack Information on Google MapsDetailed Wind InformationAccess Analytics MapList of All Images || NewsDisaster Info.WeblogTrackbackTyphoon FrontTwiphoonTyphoon Now!Typhoon ImaginationResourceGoogle EarthGE AnimationAtom FeedGeoJSON
Detalied Best Track (Time Zone = UTC)
Year Month Day Hour Lat. Long. Pressure (hPa) Wind (kt) Class Image Chart
2012 8 3 06 24.0 161.8 1008 0 2 Image Chart
2012 8 3 12 23.8 162.1 1008 0 2 Image Chart
2012 8 3 18 23.6 162.4 1008 0 2 Image Chart
2012 8 4 00 23.7 162.7 1008 0 2 Image Chart
2012 8 4 06 23.7 162.5 1006 0 2 Image Chart
2012 8 4 12 23.6 162.1 1006 0 2 Image Chart
2012 8 4 18 23.1 161.6 1006 0 2 Image Chart
2012 8 5 00 22.9 161.7 1006 0 2 Image Chart
2012 8 5 06 23.3 162.3 1004 0 2 Image Chart
2012 8 5 12 24.1 162.7 1004 0 2 Image Chart
2012 8 5 18 25.1 162.5 1004 0 2 Image Chart
2012 8 6 00 25.9 162.5 1004 0 2 Image Chart
2012 8 6 06 26.8 162.7 1002 0 2 Image Chart
2012 8 6 12 27.7 162.6 998 35 3 Image Chart
2012 8 6 18 28.4 162.3 998 35 3 Image Chart
2012 8 7 00 29.0 161.9 998 35 3 Image Chart
2012 8 7 06 29.7 161.4 996 40 3 Image Chart
2012 8 7 12 30.1 160.8 996 40 3 Image Chart
2012 8 7 18 30.8 160.3 994 40 3 Image Chart
2012 8 8 00 31.4 159.5 994 40 3 Image Chart
2012 8 8 06 31.8 158.2 994 40 3 Image Chart
2012 8 8 12 32.6 157.2 994 40 3 Image Chart
2012 8 8 18 33.4 156.1 994 40 3 Image Chart
2012 8 9 00 34.4 155.0 994 40 3 Image Chart
2012 8 9 06 36.0 154.1 990 50 4 Image Chart
2012 8 9 12 37.6 153.0 992 45 3 Image Chart
2012 8 9 18 39.3 151.5 992 45 3 Image Chart
2012 8 10 00 41.2 149.9 994 45 3 Image Chart
2012 8 10 06 43.7 148.3 998 0 6 Image Chart
2012 8 10 12 45.7 147.3 1000 0 6 Image Chart
2012 8 10 18 48.6 147.2 998 0 6 Image Chart
2012 8 11 00 50.4 146.9 998 0 6 Image Chart
2012 8 11 06 53.7 146.9 998 0 6 Image Chart
2012 8 11 12 55.5 146.9 994 0 6 Image Chart
2012 8 11 18 57.8 148.1 994 0 6 Image Chart
2012 8 12 00 59.0 147.9 992 0 6 Image Chart
2012 8 12 06 61.2 148.2 992 0 6 Image Chart
Japan Meteorological Agency Best Track Data | Correction Date : 2012-09-26
< Typhoon 201211 2012 Season Typhoon 201213 >

Help